createdAt,value
2018-05-23T00:00:29.683Z,16.60
2018-05-23T00:02:56.079Z,16.60
2018-05-23T00:05:23.215Z,16.60
2018-05-23T00:07:50.713Z,16.70
2018-05-23T00:10:17.090Z,16.70
2018-05-23T00:12:43.468Z,16.70
2018-05-23T00:15:09.911Z,16.70
2018-05-23T00:17:36.381Z,16.60
2018-05-23T00:20:02.814Z,16.60
2018-05-23T00:22:29.185Z,16.60
2018-05-23T00:24:56.324Z,16.60
2018-05-23T00:27:25.071Z,16.60
2018-05-23T00:29:51.518Z,16.60
2018-05-23T00:32:17.949Z,16.70
2018-05-23T00:34:44.987Z,16.30
2018-05-23T00:37:11.463Z,16.70
2018-05-23T00:39:39.031Z,16.60
2018-05-23T00:42:06.211Z,16.60
2018-05-23T00:44:32.966Z,16.60
2018-05-23T00:46:59.333Z,16.60
2018-05-23T00:49:26.559Z,16.50
2018-05-23T00:51:52.977Z,16.50
2018-05-23T00:54:19.432Z,16.50
2018-05-23T00:56:46.229Z,16.50
2018-05-23T00:59:12.675Z,16.50
2018-05-23T01:01:39.103Z,16.40
2018-05-23T01:04:05.499Z,16.50
2018-05-23T01:06:32.730Z,16.50
2018-05-23T01:08:59.974Z,16.40
2018-05-23T01:11:27.113Z,16.40
2018-05-23T01:13:53.539Z,16.40
2018-05-23T01:16:19.909Z,16.40
2018-05-23T01:18:46.405Z,16.50
2018-05-23T01:21:12.934Z,16.60
2018-05-23T01:23:39.522Z,16.60
2018-05-23T01:26:06.782Z,16.60
2018-05-23T01:28:34.361Z,16.70
2018-05-23T01:31:00.809Z,16.70
2018-05-23T01:33:28.422Z,16.70
2018-05-23T01:35:55.767Z,16.70
2018-05-23T01:38:22.968Z,16.60
2018-05-23T01:40:50.077Z,16.50
2018-05-23T01:43:17.487Z,16.50
2018-05-23T01:45:44.305Z,16.50
2018-05-23T01:48:10.978Z,16.30
2018-05-23T01:50:37.920Z,16.50
2018-05-23T01:53:05.002Z,16.40
2018-05-23T01:55:31.442Z,16.40
2018-05-23T01:57:58.054Z,16.30
2018-05-23T02:00:24.440Z,16.30
2018-05-23T02:02:50.910Z,16.30
2018-05-23T02:05:17.468Z,16.30
2018-05-23T02:07:44.969Z,16.40
2018-05-23T02:10:11.504Z,16.20
2018-05-23T02:12:38.131Z,16.40
2018-05-23T02:15:04.569Z,16.40
2018-05-23T02:17:31.707Z,16.40
2018-05-23T02:19:59.338Z,16.30
2018-05-23T02:22:26.514Z,16.30
2018-05-23T02:24:53.814Z,16.30
2018-05-23T02:27:20.324Z,16.20
2018-05-23T02:29:46.854Z,16.30
2018-05-23T02:32:13.592Z,16.30
2018-05-23T02:34:40.517Z,16.20
2018-05-23T02:37:07.667Z,16.10
2018-05-23T02:39:34.610Z,15.80
2018-05-23T02:42:01.150Z,16.20
2018-05-23T02:44:27.694Z,16.10
2018-05-23T02:46:54.203Z,16.20
2018-05-23T02:49:21.430Z,16.10
2018-05-23T02:51:47.984Z,16.10
2018-05-23T02:54:15.649Z,16.00
2018-05-23T02:56:42.153Z,16.00
2018-05-23T02:59:08.573Z,16.00
2018-05-23T03:01:35.944Z,16.00
2018-05-23T03:04:03.273Z,16.00
2018-05-23T03:06:30.192Z,15.80
2018-05-23T03:08:57.343Z,15.90
2018-05-23T03:11:24.776Z,15.90
2018-05-23T03:13:51.587Z,15.80
2018-05-23T03:16:18.092Z,15.80
2018-05-23T03:18:44.588Z,15.80
2018-05-23T03:21:11.038Z,15.70
2018-05-23T03:23:38.990Z,15.60
2018-05-23T03:26:05.458Z,15.80
2018-05-23T03:28:32.621Z,15.70
2018-05-23T03:30:59.189Z,15.60
2018-05-23T03:33:25.642Z,15.60
2018-05-23T03:35:52.883Z,15.70
2018-05-23T03:38:19.317Z,15.70
2018-05-23T03:40:45.805Z,15.70
2018-05-23T03:43:12.246Z,15.70
2018-05-23T03:45:38.722Z,15.70
2018-05-23T03:48:05.425Z,15.70
2018-05-23T03:50:31.857Z,15.70
2018-05-23T03:52:58.579Z,15.70
2018-05-23T03:55:25.131Z,15.70
2018-05-23T03:57:51.513Z,15.90
2018-05-23T04:00:36.194Z,15.90
2018-05-23T04:03:21.814Z,15.90
2018-05-23T04:06:06.868Z,15.70
2018-05-23T04:08:35.119Z,15.90
2018-05-23T04:11:02.418Z,15.90
2018-05-23T04:13:28.828Z,15.90
2018-05-23T04:15:55.456Z,15.90
2018-05-23T04:18:22.737Z,16.00
2018-05-23T04:20:49.142Z,16.00
2018-05-23T04:23:15.568Z,16.00
2018-05-23T04:25:42.735Z,16.00
2018-05-23T04:28:09.224Z,16.00
2018-05-23T04:30:35.654Z,15.90
2018-05-23T04:33:02.074Z,15.90
2018-05-23T04:35:28.768Z,15.60
2018-05-23T04:37:55.309Z,15.90
2018-05-23T04:40:21.774Z,15.90
2018-05-23T04:42:48.185Z,15.90
2018-05-23T04:45:14.605Z,16.00
2018-05-23T04:47:41.136Z,16.00
2018-05-23T04:50:07.610Z,16.00
2018-05-23T04:52:34.210Z,16.00
2018-05-23T04:55:00.761Z,16.10
2018-05-23T04:57:27.208Z,16.00
2018-05-23T04:59:53.645Z,16.10
2018-05-23T05:02:20.100Z,16.10
2018-05-23T05:04:46.546Z,15.90
2018-05-23T05:07:14.453Z,16.20
2018-05-23T05:09:41.043Z,16.10
2018-05-23T05:12:07.655Z,16.10
2018-05-23T05:14:34.325Z,16.10
2018-05-23T05:17:01.505Z,16.10
2018-05-23T05:19:28.165Z,16.10
2018-05-23T05:21:54.615Z,16.10
2018-05-23T05:24:21.053Z,16.10
2018-05-23T05:26:47.621Z,16.10
2018-05-23T05:29:16.373Z,16.10
2018-05-23T05:31:42.924Z,16.10
2018-05-23T05:34:09.385Z,16.00
2018-05-23T05:36:37.041Z,16.00
2018-05-23T05:39:03.620Z,16.00
2018-05-23T05:41:30.094Z,15.90
2018-05-23T05:43:56.566Z,16.00
2018-05-23T05:46:23.754Z,16.10
2018-05-23T05:48:50.876Z,16.00
2018-05-23T05:51:17.285Z,15.90
2018-05-23T05:53:43.971Z,16.20
2018-05-23T05:56:10.684Z,16.20
2018-05-23T05:58:37.204Z,16.30
2018-05-23T06:01:05.081Z,16.40
2018-05-23T06:03:31.507Z,16.10
2018-05-23T06:05:58.682Z,16.40
2018-05-23T06:08:25.319Z,16.40
2018-05-23T06:10:52.424Z,16.50
2018-05-23T06:13:19.681Z,16.60
2018-05-23T06:15:47.193Z,16.60
2018-05-23T06:18:13.752Z,16.40
2018-05-23T06:20:42.111Z,16.80
2018-05-23T06:23:08.543Z,16.80
2018-05-23T06:25:37.573Z,16.90
2018-05-23T06:28:05.022Z,17.00
2018-05-23T06:30:31.601Z,17.20
2018-05-23T06:32:59.947Z,17.30
2018-05-23T06:35:26.619Z,17.30
2018-05-23T06:37:53.397Z,17.40
2018-05-23T06:40:19.865Z,17.20
2018-05-23T06:42:47.556Z,17.30
2018-05-23T06:45:14.653Z,17.30
2018-05-23T06:47:42.664Z,17.00
2018-05-23T06:50:09.920Z,16.90
2018-05-23T06:52:37.305Z,16.90
2018-05-23T06:55:03.755Z,16.90
2018-05-23T06:57:30.248Z,16.90
2018-05-23T06:59:56.736Z,16.90
2018-05-23T07:02:23.160Z,16.90
2018-05-23T07:04:49.738Z,17.00
2018-05-23T07:07:16.890Z,17.00
2018-05-23T07:09:44.129Z,17.10
2018-05-23T07:12:11.442Z,17.10
2018-05-23T07:14:37.890Z,17.10
2018-05-23T07:17:05.072Z,17.20
2018-05-23T07:19:32.411Z,17.20
2018-05-23T07:21:59.623Z,17.30
2018-05-23T07:24:26.915Z,17.20
2018-05-23T07:26:53.622Z,17.30
2018-05-23T07:29:20.052Z,17.40
2018-05-23T07:31:46.587Z,17.30
2018-05-23T07:34:12.924Z,17.60
2018-05-23T07:36:39.345Z,17.50
2018-05-23T07:39:05.875Z,17.60
2018-05-23T07:41:32.375Z,17.70
2018-05-23T07:43:59.600Z,17.80
2018-05-23T07:46:27.852Z,17.80
2018-05-23T07:48:54.338Z,17.80
2018-05-23T07:51:21.828Z,18.00
2018-05-23T07:53:52.289Z,18.00
2018-05-23T07:56:18.733Z,18.00
2018-05-23T07:58:46.109Z,18.10
2018-05-23T08:01:14.150Z,18.40
2018-05-23T08:03:40.615Z,18.30
2018-05-23T08:06:09.448Z,18.90
2018-05-23T08:08:36.696Z,18.90
2018-05-23T08:11:03.184Z,18.50
2018-05-23T08:13:29.725Z,18.90
2018-05-23T08:15:56.314Z,18.80
2018-05-23T08:18:23.006Z,19.10
2018-05-23T08:20:50.212Z,19.60
2018-05-23T08:23:16.645Z,19.50
2018-05-23T08:25:43.191Z,19.50
2018-05-23T08:28:11.189Z,19.30
2018-05-23T08:30:40.230Z,19.50
2018-05-23T08:33:07.196Z,19.30
2018-05-23T08:35:34.616Z,19.30
2018-05-23T08:38:01.120Z,19.20
2018-05-23T08:40:28.310Z,19.40
2018-05-23T08:42:56.054Z,19.30
2018-05-23T08:45:22.753Z,19.20
2018-05-23T08:47:49.167Z,19.50
2018-05-23T08:50:15.623Z,19.70
2018-05-23T08:52:42.800Z,20.10
2018-05-23T08:55:09.371Z,20.00
2018-05-23T08:57:36.722Z,20.00
2018-05-23T09:00:03.419Z,20.20
2018-05-23T09:02:30.408Z,20.20
2018-05-23T09:04:57.015Z,20.20
2018-05-23T09:07:23.506Z,20.30
2018-05-23T09:09:50.042Z,20.30
2018-05-23T09:12:16.615Z,20.30
2018-05-23T09:14:43.003Z,20.40
2018-05-23T09:17:09.390Z,20.30
2018-05-23T09:19:35.926Z,20.10
2018-05-23T09:22:02.392Z,20.20
2018-05-23T09:24:28.812Z,20.30
2018-05-23T09:26:55.368Z,20.20
2018-05-23T09:29:22.229Z,20.60
2018-05-23T09:31:48.694Z,20.80
2018-05-23T09:34:15.418Z,20.50
2018-05-23T09:36:42.032Z,20.50
2018-05-23T09:39:08.521Z,20.40
2018-05-23T09:41:35.053Z,20.40
2018-05-23T09:44:01.589Z,20.40
2018-05-23T09:46:28.737Z,20.60
2018-05-23T09:48:55.548Z,20.60
2018-05-23T09:51:23.061Z,20.70
2018-05-23T09:53:49.658Z,20.70
2018-05-23T09:56:16.162Z,20.60
2018-05-23T09:58:42.602Z,20.40
2018-05-23T10:01:10.439Z,20.80
2018-05-23T10:03:37.626Z,21.00
2018-05-23T10:06:04.090Z,20.90
2018-05-23T10:08:30.506Z,21.10
2018-05-23T10:10:57.684Z,21.20
2018-05-23T10:13:24.845Z,21.10
2018-05-23T10:15:51.353Z,21.20
2018-05-23T10:18:17.997Z,21.10
2018-05-23T10:20:44.424Z,21.20
2018-05-23T10:23:10.930Z,21.30
2018-05-23T10:25:38.345Z,21.30
2018-05-23T10:28:04.938Z,21.40
2018-05-23T10:30:32.091Z,21.20
2018-05-23T10:32:59.268Z,21.20
2018-05-23T10:35:25.721Z,20.90
2018-05-23T10:37:52.194Z,21.00
2018-05-23T10:40:19.751Z,20.90
2018-05-23T10:42:46.634Z,20.90
2018-05-23T10:45:13.077Z,20.80
2018-05-23T10:47:39.449Z,20.80
2018-05-23T10:50:05.982Z,21.00
2018-05-23T10:52:32.818Z,21.20
2018-05-23T10:54:59.439Z,21.90
2018-05-23T10:57:25.868Z,22.40
2018-05-23T10:59:52.261Z,22.70
2018-05-23T11:02:19.455Z,22.90
2018-05-23T11:04:45.943Z,22.60
2018-05-23T11:07:13.227Z,22.60
2018-05-23T11:09:40.189Z,22.60
2018-05-23T11:12:06.615Z,22.80
2018-05-23T11:14:33.334Z,22.70
2018-05-23T11:16:59.741Z,22.50
2018-05-23T11:19:29.318Z,22.40
2018-05-23T11:21:55.831Z,22.30
2018-05-23T11:24:22.321Z,22.40
2018-05-23T11:26:49.829Z,23.10
2018-05-23T11:29:16.251Z,23.00
2018-05-23T11:31:42.817Z,23.20
2018-05-23T11:34:11.124Z,23.80
2018-05-23T11:36:37.623Z,23.80
2018-05-23T11:39:04.251Z,23.90
2018-05-23T11:41:30.904Z,24.30
2018-05-23T11:43:57.553Z,24.60
2018-05-23T11:46:24.223Z,24.70
2018-05-23T11:48:51.396Z,24.90
2018-05-23T11:51:17.840Z,24.80
2018-05-23T11:53:44.356Z,25.00
2018-05-23T11:58:45.055Z,24.20
2018-05-23T12:01:11.582Z,24.20
2018-05-23T12:03:38.087Z,23.70
2018-05-23T12:06:04.562Z,23.80
2018-05-23T12:08:31.882Z,24.10
2018-05-23T12:10:58.340Z,24.50
2018-05-23T12:13:24.747Z,24.50
2018-05-23T12:15:51.155Z,24.40
2018-05-23T12:18:17.644Z,24.30
2018-05-23T12:20:45.891Z,23.70
2018-05-23T12:23:12.401Z,23.70
2018-05-23T12:25:39.831Z,23.50
2018-05-23T12:28:07.675Z,23.00
2018-05-23T12:30:34.737Z,22.90
2018-05-23T12:33:01.477Z,23.10
2018-05-23T12:35:29.913Z,23.80
2018-05-23T12:37:56.999Z,23.80
2018-05-23T12:40:23.472Z,23.70
2018-05-23T12:42:50.202Z,23.60
2018-05-23T12:45:16.642Z,23.60
2018-05-23T12:47:43.037Z,24.00
2018-05-23T12:50:09.427Z,24.10
2018-05-23T12:52:35.892Z,24.20
2018-05-23T12:55:02.504Z,23.90
2018-05-23T12:57:28.963Z,23.70
2018-05-23T12:59:55.425Z,23.80
2018-05-23T13:02:22.546Z,24.00
2018-05-23T13:04:49.059Z,24.00
2018-05-23T13:07:15.525Z,24.30
2018-05-23T13:09:41.942Z,24.70
2018-05-23T13:12:08.317Z,25.20
2018-05-23T13:14:35.047Z,25.60
2018-05-23T13:17:02.185Z,26.60
2018-05-23T13:19:29.357Z,26.90
2018-05-23T13:21:55.913Z,26.90
2018-05-23T13:24:22.376Z,27.40
2018-05-23T13:26:48.754Z,27.80
2018-05-23T13:29:16.336Z,28.20
2018-05-23T13:31:43.054Z,28.00
2018-05-23T13:34:10.452Z,27.60
2018-05-23T13:36:36.840Z,27.50
2018-05-23T13:39:05.217Z,27.90
2018-05-23T13:41:32.381Z,28.00
2018-05-23T13:43:59.206Z,28.00
2018-05-23T13:46:26.178Z,28.00
2018-05-23T13:48:53.137Z,28.10
2018-05-23T13:51:19.698Z,28.30
2018-05-23T13:53:46.129Z,29.40
2018-05-23T13:56:12.724Z,29.30
2018-05-23T13:58:39.625Z,30.50
2018-05-23T14:01:08.263Z,31.40
2018-05-23T14:03:35.809Z,31.20
2018-05-23T14:06:03.325Z,32.30
2018-05-23T14:08:30.734Z,32.30
2018-05-23T14:10:58.454Z,32.00
2018-05-23T14:13:25.973Z,30.60
2018-05-23T14:15:52.507Z,30.50
2018-05-23T14:18:20.035Z,30.80
2018-05-23T14:20:46.528Z,30.20
2018-05-23T14:23:13.819Z,30.40
2018-05-23T14:25:43.356Z,30.40
2018-05-23T14:28:13.545Z,30.70
2018-05-23T14:30:40.990Z,32.20
2018-05-23T14:33:08.504Z,33.20
2018-05-23T14:35:35.037Z,32.40
2018-05-23T14:38:01.575Z,34.30
2018-05-23T14:40:28.090Z,33.80
2018-05-23T14:42:54.495Z,33.10
2018-05-23T14:45:21.734Z,30.90
2018-05-23T14:47:49.921Z,29.60
2018-05-23T14:50:17.118Z,28.90
2018-05-23T14:52:43.528Z,28.80
2018-05-23T14:55:10.177Z,28.60
2018-05-23T14:57:36.885Z,28.50
2018-05-23T15:00:04.066Z,28.40
2018-05-23T15:02:30.601Z,28.40
2018-05-23T15:04:56.938Z,28.10
2018-05-23T15:07:23.586Z,27.60
2018-05-23T15:09:51.173Z,27.20
2018-05-23T15:12:17.778Z,26.80
2018-05-23T15:14:44.356Z,26.80
2018-05-23T15:17:11.866Z,26.90
2018-05-23T15:19:39.189Z,24.90
2018-05-23T15:22:05.624Z,26.90
2018-05-23T15:24:32.080Z,26.70
2018-05-23T15:26:58.550Z,26.80
2018-05-23T15:29:24.951Z,27.30
2018-05-23T15:31:51.427Z,27.40
2018-05-23T15:34:17.794Z,27.90
2018-05-23T15:36:44.267Z,28.50
2018-05-23T15:39:10.693Z,29.50
2018-05-23T15:41:37.706Z,29.80
2018-05-23T15:44:04.061Z,30.40
2018-05-23T15:46:30.616Z,30.20
2018-05-23T15:48:57.442Z,30.70
2018-05-23T15:51:24.096Z,30.80
2018-05-23T15:53:50.592Z,31.30
2018-05-23T15:56:17.040Z,31.10
2018-05-23T15:58:43.453Z,32.10
2018-05-23T16:01:09.957Z,32.00
2018-05-23T16:03:37.080Z,31.10
2018-05-23T16:06:03.558Z,31.00
2018-05-23T16:08:29.989Z,30.30
2018-05-23T16:10:57.209Z,30.70
2018-05-23T16:13:23.605Z,30.70
2018-05-23T16:15:50.042Z,30.90
2018-05-23T16:18:16.497Z,30.70
2018-05-23T16:20:43.388Z,31.80
2018-05-23T16:23:09.851Z,31.90
2018-05-23T16:25:36.663Z,31.50
2018-05-23T16:28:03.131Z,31.20
2018-05-23T16:30:29.580Z,30.40
2018-05-23T16:32:59.751Z,31.50
2018-05-23T16:35:26.173Z,31.70
2018-05-23T16:37:53.342Z,31.50
2018-05-23T16:40:19.734Z,31.50
2018-05-23T16:42:46.255Z,31.40
2018-05-23T16:45:12.950Z,31.80
2018-05-23T16:47:39.431Z,32.00
2018-05-23T16:50:06.692Z,31.90
2018-05-23T16:52:33.099Z,30.60
2018-05-23T16:54:59.549Z,30.80
2018-05-23T16:57:26.139Z,30.90
2018-05-23T16:59:52.628Z,30.80
2018-05-23T17:02:19.818Z,30.60
2018-05-23T17:04:46.193Z,30.50
2018-05-23T17:07:12.638Z,30.80
2018-05-23T17:09:39.111Z,31.10
2018-05-23T17:12:05.508Z,31.00
2018-05-23T17:14:32.032Z,31.10
2018-05-23T17:16:59.807Z,31.00
2018-05-23T17:19:27.448Z,31.20
2018-05-23T17:21:55.109Z,29.50
2018-05-23T17:24:21.505Z,29.90
2018-05-23T17:26:47.873Z,29.90
2018-05-23T17:29:14.392Z,29.60
2018-05-23T17:31:40.797Z,29.50
2018-05-23T17:34:07.183Z,29.10
2018-05-23T17:36:33.638Z,28.60
2018-05-23T17:39:00.134Z,28.00
2018-05-23T17:41:26.520Z,27.80
2018-05-23T17:43:53.669Z,27.10
2018-05-23T17:46:20.820Z,26.70
2018-05-23T17:48:47.269Z,26.70
2018-05-23T17:51:13.696Z,26.50
2018-05-23T17:53:42.852Z,26.30
2018-05-23T17:56:09.349Z,26.10
2018-05-23T17:58:36.093Z,26.00
2018-05-23T18:01:03.875Z,24.70
2018-05-23T18:03:30.317Z,25.70
2018-05-23T18:05:57.152Z,25.50
2018-05-23T18:08:23.660Z,25.40
2018-05-23T18:10:50.077Z,25.40
2018-05-23T18:13:16.433Z,25.40
2018-05-23T18:15:43.053Z,25.20
2018-05-23T18:18:09.527Z,25.20
2018-05-23T18:20:36.327Z,25.20
2018-05-23T18:23:02.985Z,25.10
2018-05-23T18:25:29.688Z,24.80
2018-05-23T18:27:57.427Z,24.00
2018-05-23T18:30:24.650Z,23.60
2018-05-23T18:32:51.448Z,23.60
2018-05-23T18:35:17.873Z,23.20
2018-05-23T18:37:45.405Z,23.10
2018-05-23T18:40:11.892Z,22.90
2018-05-23T18:42:38.398Z,22.80
2018-05-23T18:45:06.199Z,22.40
2018-05-23T18:47:33.426Z,22.30
2018-05-23T18:50:00.724Z,22.20
2018-05-23T18:52:27.554Z,22.20
2018-05-23T18:54:55.296Z,22.10
2018-05-23T18:57:22.469Z,22.00
2018-05-23T18:59:49.171Z,21.90
2018-05-23T19:02:15.713Z,21.90
2018-05-23T19:04:42.163Z,21.90
2018-05-23T19:07:08.725Z,21.80
2018-05-23T19:09:35.422Z,21.80
2018-05-23T19:12:01.859Z,21.70
2018-05-23T19:14:28.569Z,21.60
2018-05-23T19:16:55.034Z,21.50
2018-05-23T19:19:21.529Z,21.40
2018-05-23T19:21:48.875Z,21.20
2018-05-23T19:24:15.315Z,21.20
2018-05-23T19:26:41.781Z,21.20
2018-05-23T19:29:08.325Z,21.10
2018-05-23T19:31:35.232Z,21.00
2018-05-23T19:34:02.394Z,21.00
2018-05-23T19:36:29.593Z,21.00
2018-05-23T19:38:56.030Z,21.00
2018-05-23T19:41:23.603Z,21.00
2018-05-23T19:43:50.245Z,20.80
2018-05-23T19:46:16.859Z,20.60
2018-05-23T19:48:43.300Z,20.60
2018-05-23T19:51:10.118Z,20.50
2018-05-23T19:53:36.757Z,20.40
2018-05-23T19:56:03.143Z,20.30
2018-05-23T19:58:29.607Z,20.00
2018-05-23T20:00:56.048Z,20.20
2018-05-23T20:03:22.465Z,20.10
2018-05-23T20:05:49.898Z,19.90
2018-05-23T20:08:17.584Z,19.90
2018-05-23T20:10:44.574Z,19.80
2018-05-23T20:13:11.238Z,19.80
2018-05-23T20:15:38.600Z,19.70
2018-05-23T20:18:05.710Z,19.60
2018-05-23T20:20:32.519Z,19.60
2018-05-23T20:22:58.989Z,19.50
2018-05-23T20:25:25.432Z,19.50
2018-05-23T20:27:51.893Z,19.50
2018-05-23T20:30:18.943Z,19.40
2018-05-23T20:32:50.304Z,19.30
2018-05-23T20:35:17.674Z,19.30
2018-05-23T20:37:46.194Z,19.30
2018-05-23T20:40:15.002Z,19.10
2018-05-23T20:42:44.515Z,19.30
2018-05-23T20:45:12.406Z,18.90
2018-05-23T20:47:39.599Z,19.30
2018-05-23T20:50:06.061Z,19.30
2018-05-23T20:52:32.590Z,19.20
2018-05-23T20:54:59.213Z,19.20
2018-05-23T20:57:26.588Z,19.20
2018-05-23T20:59:53.170Z,19.20
2018-05-23T21:02:19.755Z,19.20
2018-05-23T21:04:46.431Z,19.10
2018-05-23T21:07:13.279Z,19.20
2018-05-23T21:09:39.858Z,19.10
2018-05-23T21:12:06.448Z,19.10
2018-05-23T21:14:32.970Z,19.20
2018-05-23T21:17:00.391Z,19.00
2018-05-23T21:19:28.094Z,19.00
2018-05-23T21:21:54.597Z,19.00
2018-05-23T21:24:21.871Z,18.90
2018-05-23T21:26:49.353Z,18.90
2018-05-23T21:29:15.933Z,18.90
2018-05-23T21:31:42.677Z,18.90
2018-05-23T21:34:11.250Z,18.60
2018-05-23T21:36:40.416Z,18.80
2018-05-23T21:39:08.657Z,18.80
2018-05-23T21:41:38.083Z,18.70
2018-05-23T21:44:06.104Z,18.70
2018-05-23T21:46:33.722Z,18.70
2018-05-23T21:49:01.222Z,18.60
2018-05-23T21:51:27.740Z,18.60
2018-05-23T21:53:54.805Z,18.40
2018-05-23T21:56:21.379Z,18.60
2018-05-23T21:58:47.870Z,18.60
2018-05-23T22:01:14.465Z,18.60
2018-05-23T22:03:41.033Z,18.60
2018-05-23T22:06:08.487Z,18.60
2018-05-23T22:08:34.977Z,18.50
2018-05-23T22:11:02.316Z,18.30
2018-05-23T22:13:29.543Z,18.20
2018-05-23T22:15:56.002Z,18.20
2018-05-23T22:18:23.494Z,18.00
2018-05-23T22:20:49.991Z,15.70
2018-05-23T22:23:17.419Z,17.80
2018-05-23T22:25:43.895Z,17.80
2018-05-23T22:28:11.163Z,17.70
2018-05-23T22:30:44.081Z,17.70
2018-05-23T22:33:11.945Z,17.70
2018-05-23T22:35:38.337Z,17.60
2018-05-23T22:38:05.551Z,17.50
2018-05-23T22:40:32.460Z,17.50
2018-05-23T22:43:00.001Z,17.50
2018-05-23T22:45:27.186Z,17.20
2018-05-23T22:50:27.231Z,17.50
2018-05-23T22:52:53.722Z,17.50
2018-05-23T22:55:20.536Z,17.50
2018-05-23T22:57:46.944Z,17.50
2018-05-23T23:00:21.028Z,17.50
2018-05-23T23:02:47.627Z,17.40
2018-05-23T23:05:14.858Z,17.20
2018-05-23T23:07:41.324Z,17.20
2018-05-23T23:10:07.723Z,17.20
2018-05-23T23:12:34.280Z,17.20
2018-05-23T23:15:01.456Z,17.10
2018-05-23T23:17:27.893Z,17.10
2018-05-23T23:19:54.441Z,17.10
2018-05-23T23:22:39.069Z,17.10
2018-05-23T23:25:05.580Z,17.00
2018-05-23T23:27:32.018Z,16.90
2018-05-23T23:29:59.233Z,17.00
2018-05-23T23:32:25.605Z,16.90
2018-05-23T23:34:52.761Z,17.00
2018-05-23T23:37:20.019Z,17.10
2018-05-23T23:39:47.343Z,17.00
2018-05-23T23:42:14.013Z,17.10
2018-05-23T23:44:41.155Z,17.10
2018-05-23T23:47:07.575Z,17.10
2018-05-23T23:49:33.974Z,17.10
2018-05-23T23:52:00.404Z,17.00
2018-05-23T23:54:27.113Z,17.10
2018-05-23T23:56:53.620Z,17.00
2018-05-23T23:59:20.744Z,17.00
